createdAt,value
2022-10-04T00:00:26.948Z,100745.91
2022-10-04T00:01:44.304Z,100747.16
2022-10-04T00:02:47.775Z,100749.31
2022-10-04T00:04:01.705Z,100746.25
2022-10-04T00:05:11.713Z,100750.09
2022-10-04T00:06:22.429Z,100744.34
2022-10-04T00:07:30.874Z,100746.25
2022-10-04T00:08:44.477Z,100747.78
2022-10-04T00:09:50.955Z,100749.63
2022-10-04T00:11:24.994Z,100755.41
2022-10-04T00:12:49.191Z,100749.78
2022-10-04T00:13:57.627Z,100757.94
2022-10-04T00:15:05.448Z,100750.53
2022-10-04T00:16:07.964Z,100768.13
2022-10-04T00:17:14.277Z,100770.28
2022-10-04T00:18:29.003Z,100765.84
2022-10-04T00:19:49.680Z,100761.31
2022-10-04T00:20:53.549Z,100762.78
2022-10-04T00:21:56.528Z,100757.03
2022-10-04T00:23:23.534Z,100754.72
2022-10-04T00:24:28.437Z,100757.72
2022-10-04T00:25:35.564Z,100761.25
2022-10-04T00:26:38.554Z,100760.16
2022-10-04T00:28:18.141Z,100757.06
2022-10-04T00:29:43.644Z,100755.81
2022-10-04T00:31:06.408Z,100747.69
2022-10-04T00:32:08.889Z,100762.38
2022-10-04T00:33:11.338Z,100753.56
2022-10-04T00:34:13.658Z,100758.75
2022-10-04T00:35:27.889Z,100760.94
2022-10-04T00:36:46.255Z,100756.66
2022-10-04T00:38:08.363Z,100762.72
2022-10-04T00:39:12.245Z,100755.75
2022-10-04T00:40:20.185Z,100759.31
2022-10-04T00:41:29.662Z,100748.38
2022-10-04T00:42:41.893Z,100747.03
2022-10-04T00:43:48.167Z,100745.03
2022-10-04T00:44:54.880Z,100750.03
2022-10-04T00:46:15.651Z,100747.88
2022-10-04T00:47:46.489Z,100751.75
2022-10-04T00:48:54.521Z,100755.41
2022-10-04T00:50:03.617Z,100744.34
2022-10-04T00:51:29.364Z,100752.44
2022-10-04T00:52:36.970Z,100755.09
2022-10-04T00:53:52.111Z,100754.41
2022-10-04T00:54:58.921Z,100752.44
2022-10-04T00:56:05.444Z,100748.34
2022-10-04T00:57:20.799Z,100754.94
2022-10-04T00:58:34.613Z,100744.75
2022-10-04T00:59:48.330Z,100744.03
2022-10-04T01:00:54.824Z,100751.03
2022-10-04T01:02:03.914Z,100740.66
2022-10-04T01:03:06.354Z,100740.66
2022-10-04T01:04:25.047Z,100735.56
2022-10-04T01:05:35.621Z,100733.06
2022-10-04T01:06:40.173Z,100721.56
2022-10-04T01:07:48.065Z,100730.81
2022-10-04T01:09:07.253Z,100729.44
2022-10-04T01:10:15.878Z,100732.88
2022-10-04T01:11:27.327Z,100729.56
2022-10-04T01:12:42.641Z,100732.66
2022-10-04T01:13:59.247Z,100732.22
2022-10-04T01:15:09.111Z,100737.84
2022-10-04T01:16:18.392Z,100724.31
2022-10-04T01:17:20.770Z,100726.94
2022-10-04T01:18:23.251Z,100725.66
2022-10-04T01:19:30.703Z,100728.09
2022-10-04T01:20:37.270Z,100726.06
2022-10-04T01:21:40.186Z,100713.06
2022-10-04T01:22:49.173Z,100725.56
2022-10-04T01:23:58.196Z,100716.00
2022-10-04T01:25:00.627Z,100716.06
2022-10-04T01:26:27.061Z,100723.09
2022-10-04T01:27:43.979Z,100719.56
2022-10-04T01:28:46.327Z,100721.09
2022-10-04T01:29:51.774Z,100718.31
2022-10-04T01:30:57.224Z,100722.59
2022-10-04T01:32:02.350Z,100721.56
2022-10-04T01:33:07.179Z,100726.44
2022-10-04T01:34:20.346Z,100729.06
2022-10-04T01:35:23.453Z,100727.81
2022-10-04T01:36:28.006Z,100726.59
2022-10-04T01:37:31.450Z,100720.09
2022-10-04T01:38:33.929Z,100719.44
2022-10-04T01:39:36.394Z,100714.94
2022-10-04T01:40:47.303Z,100722.41
2022-10-04T01:42:15.572Z,100717.25
2022-10-04T01:43:27.984Z,100723.31
2022-10-04T01:44:39.530Z,100729.94
2022-10-04T01:45:48.522Z,100727.19
2022-10-04T01:46:55.319Z,100735.81
2022-10-04T01:48:04.123Z,100731.19
2022-10-04T01:49:13.688Z,100732.59
2022-10-04T01:50:23.649Z,100745.34
2022-10-04T01:51:34.064Z,100735.56
2022-10-04T01:52:42.985Z,100743.63
2022-10-04T01:54:05.733Z,100745.34
2022-10-04T01:55:35.545Z,100748.19
2022-10-04T01:56:49.838Z,100741.22
2022-10-04T01:57:58.556Z,100744.31
2022-10-04T01:59:19.943Z,100745.75
2022-10-04T02:00:24.661Z,100745.84
2022-10-04T02:01:35.985Z,100743.09
2022-10-04T02:02:41.187Z,100754.88
2022-10-04T02:03:56.221Z,100737.94
2022-10-04T02:05:00.550Z,100746.28
2022-10-04T02:06:06.131Z,100747.38
2022-10-04T02:07:15.684Z,100741.66
2022-10-04T02:08:31.098Z,100741.50
2022-10-04T02:09:36.277Z,100736.22
2022-10-04T02:10:43.453Z,100742.59
2022-10-04T02:11:53.306Z,100735.44
2022-10-04T02:12:57.418Z,100739.22
2022-10-04T02:14:00.688Z,100751.19
2022-10-04T02:15:06.992Z,100747.31
2022-10-04T02:16:12.439Z,100751.03
2022-10-04T02:17:17.484Z,100755.22
2022-10-04T02:18:22.524Z,100747.16
2022-10-04T02:19:31.526Z,100754.47
2022-10-04T02:20:34.307Z,100756.59
2022-10-04T02:21:37.552Z,100755.38
2022-10-04T02:22:40.855Z,100775.09
2022-10-04T02:23:44.561Z,100764.25
2022-10-04T02:24:48.927Z,100772.59
2022-10-04T02:25:52.322Z,100758.78
2022-10-04T02:26:54.796Z,100764.06
2022-10-04T02:27:57.517Z,100756.47
2022-10-04T02:28:59.994Z,100757.81
2022-10-04T02:30:07.581Z,100762.88
2022-10-04T02:31:29.700Z,100761.31
2022-10-04T02:32:51.877Z,100764.78
2022-10-04T02:33:58.212Z,100757.50
2022-10-04T02:35:00.736Z,100754.56
2022-10-04T02:36:03.143Z,100757.63
2022-10-04T02:37:06.509Z,100743.66
2022-10-04T02:38:15.008Z,100750.03
2022-10-04T02:39:20.730Z,100752.47
2022-10-04T02:40:31.560Z,100750.75
2022-10-04T02:41:43.105Z,100754.75
2022-10-04T02:42:54.843Z,100746.06
2022-10-04T02:44:04.319Z,100740.19
2022-10-04T02:45:20.342Z,100738.97
2022-10-04T02:46:36.367Z,100747.81
2022-10-04T02:48:03.328Z,100739.56
2022-10-04T02:49:19.414Z,100739.09
2022-10-04T02:50:50.542Z,100743.03
2022-10-04T02:51:59.544Z,100741.59
2022-10-04T02:53:23.776Z,100741.59
2022-10-04T02:54:35.532Z,100744.38
2022-10-04T02:55:38.490Z,100747.91
2022-10-04T02:56:42.276Z,100750.72
2022-10-04T02:57:45.010Z,100755.00
2022-10-04T02:58:58.412Z,100749.50
2022-10-04T03:00:26.837Z,100754.75
2022-10-04T03:01:44.008Z,100755.34
2022-10-04T03:03:10.608Z,100759.66
2022-10-04T03:04:15.259Z,100763.84
2022-10-04T03:05:17.760Z,100754.91
2022-10-04T03:06:22.601Z,100753.97
2022-10-04T03:07:26.192Z,100753.09
2022-10-04T03:08:30.739Z,100757.13
2022-10-04T03:09:36.723Z,100755.41
2022-10-04T03:10:41.686Z,100754.75
2022-10-04T03:11:44.561Z,100760.94
2022-10-04T03:12:51.226Z,100760.19
2022-10-04T03:13:59.461Z,100746.84
2022-10-04T03:15:02.111Z,100754.44
2022-10-04T03:16:06.546Z,100752.56
2022-10-04T03:17:09.595Z,100742.53
2022-10-04T03:18:12.096Z,100738.78
2022-10-04T03:19:16.985Z,100745.75
2022-10-04T03:20:21.531Z,100742.53
2022-10-04T03:21:25.362Z,100737.88
2022-10-04T03:22:27.949Z,100726.44
2022-10-04T03:23:33.278Z,100741.75
2022-10-04T03:24:50.497Z,100737.00
2022-10-04T03:26:19.336Z,100733.47
2022-10-04T03:27:34.266Z,100731.41
2022-10-04T03:28:42.128Z,100730.81
2022-10-04T03:29:44.930Z,100730.81
2022-10-04T03:30:51.855Z,100729.94
2022-10-04T03:32:02.809Z,100739.09
2022-10-04T03:33:19.779Z,100735.13
2022-10-04T03:34:26.740Z,100737.97
2022-10-04T03:35:35.103Z,100742.44
2022-10-04T03:36:37.985Z,100737.66
2022-10-04T03:37:41.180Z,100748.69
2022-10-04T03:38:46.530Z,100744.94
2022-10-04T03:39:52.838Z,100744.47
2022-10-04T03:41:01.151Z,100751.31
2022-10-04T03:42:08.450Z,100745.44
2022-10-04T03:43:12.720Z,100745.44
2022-10-04T03:44:19.008Z,100743.91
2022-10-04T03:45:32.980Z,100743.59
2022-10-04T03:46:48.804Z,100750.75
2022-10-04T03:48:08.301Z,100748.44
2022-10-04T03:49:15.868Z,100740.66
2022-10-04T03:50:32.535Z,100744.50
2022-10-04T03:51:35.278Z,100749.00
2022-10-04T03:52:38.266Z,100754.59
2022-10-04T03:53:52.589Z,100741.81
2022-10-04T03:55:05.362Z,100747.16
2022-10-04T03:56:29.281Z,100745.13
2022-10-04T03:57:37.167Z,100743.59
2022-10-04T03:58:42.940Z,100737.06
2022-10-04T03:59:50.352Z,100732.59
2022-10-04T04:01:01.380Z,100735.81
2022-10-04T04:02:30.572Z,100738.03
2022-10-04T04:03:44.917Z,100738.44
2022-10-04T04:05:10.194Z,100739.69
2022-10-04T04:06:17.168Z,100733.84
2022-10-04T04:07:33.052Z,100739.44
2022-10-04T04:08:42.104Z,100738.19
2022-10-04T04:09:54.360Z,100743.66
2022-10-04T04:10:59.430Z,100736.84
2022-10-04T04:12:04.171Z,100744.56
2022-10-04T04:13:15.061Z,100744.00
2022-10-04T04:14:24.568Z,100739.22
2022-10-04T04:15:33.888Z,100739.22
2022-10-04T04:16:37.569Z,100733.28
2022-10-04T04:17:47.972Z,100727.44
2022-10-04T04:18:50.672Z,100735.53
2022-10-04T04:20:01.315Z,100729.31
2022-10-04T04:21:08.268Z,100728.56
2022-10-04T04:22:16.907Z,100730.16
2022-10-04T04:23:33.360Z,100729.84
2022-10-04T04:24:36.500Z,100742.38
2022-10-04T04:25:42.315Z,100730.75
2022-10-04T04:26:53.353Z,100740.38
2022-10-04T04:28:01.064Z,100742.53
2022-10-04T04:29:25.112Z,100757.13
2022-10-04T04:30:29.105Z,100746.41
2022-10-04T04:31:38.432Z,100747.22
2022-10-04T04:32:43.557Z,100747.63
2022-10-04T04:33:55.307Z,100750.91
2022-10-04T04:35:00.845Z,100756.63
2022-10-04T04:36:11.392Z,100757.75
2022-10-04T04:37:16.874Z,100762.25
2022-10-04T04:38:24.731Z,100762.25
2022-10-04T04:39:34.743Z,100764.50
2022-10-04T04:40:41.520Z,100762.06
2022-10-04T04:41:50.324Z,100769.66
2022-10-04T04:42:58.347Z,100772.13
2022-10-04T04:44:01.203Z,100777.28
2022-10-04T04:45:12.153Z,100770.91
2022-10-04T04:46:27.075Z,100772.59
2022-10-04T04:47:44.355Z,100773.69
2022-10-04T04:48:47.731Z,100776.34
2022-10-04T04:49:50.464Z,100778.50
2022-10-04T04:51:05.310Z,100781.28
2022-10-04T04:52:19.218Z,100784.09
2022-10-04T04:53:28.302Z,100782.84
2022-10-04T04:54:33.555Z,100773.88
2022-10-04T04:56:02.250Z,100780.53
2022-10-04T04:57:05.963Z,100780.03
2022-10-04T04:58:19.576Z,100779.41
2022-10-04T04:59:29.752Z,100782.06
2022-10-04T05:00:36.270Z,100775.69
2022-10-04T05:01:47.322Z,100773.38
2022-10-04T05:03:01.121Z,100780.03
2022-10-04T05:04:26.458Z,100779.41
2022-10-04T05:05:35.081Z,100777.69
2022-10-04T05:06:42.689Z,100771.69
2022-10-04T05:07:45.382Z,100780.19
2022-10-04T05:08:51.098Z,100778.06
2022-10-04T05:09:53.577Z,100775.72
2022-10-04T05:10:58.660Z,100784.53
2022-10-04T05:12:21.696Z,100790.44
2022-10-04T05:13:32.084Z,100783.31
2022-10-04T05:14:38.339Z,100787.50
2022-10-04T05:15:42.150Z,100793.22
2022-10-04T05:16:53.449Z,100786.72
2022-10-04T05:17:55.894Z,100784.09
2022-10-04T05:19:02.066Z,100787.81
2022-10-04T05:20:05.313Z,100784.69
2022-10-04T05:21:30.321Z,100795.72
2022-10-04T05:22:33.068Z,100789.50
2022-10-04T05:23:36.003Z,100791.84
2022-10-04T05:24:41.338Z,100797.25
2022-10-04T05:25:43.975Z,100788.72
2022-10-04T05:26:50.725Z,100794.00
2022-10-04T05:27:54.945Z,100795.56
2022-10-04T05:29:02.494Z,100788.88
2022-10-04T05:30:32.052Z,100791.84
2022-10-04T05:31:52.327Z,100790.44
2022-10-04T05:32:54.618Z,100793.69
2022-10-04T05:34:00.029Z,100792.00
2022-10-04T05:35:13.915Z,100794.94
2022-10-04T05:36:19.208Z,100791.63
2022-10-04T05:37:43.409Z,100783.63
2022-10-04T05:38:49.396Z,100790.13
2022-10-04T05:40:14.769Z,100794.16
2022-10-04T05:41:29.142Z,100791.19
2022-10-04T05:42:42.937Z,100798.78
2022-10-04T05:43:47.146Z,100798.16
2022-10-04T05:44:55.578Z,100798.03
2022-10-04T05:46:23.388Z,100803.31
2022-10-04T05:47:30.533Z,100804.50
2022-10-04T05:48:35.092Z,100810.44
2022-10-04T05:49:44.342Z,100813.97
2022-10-04T05:50:48.713Z,100815.53
2022-10-04T05:52:02.574Z,100813.38
2022-10-04T05:53:29.157Z,100816.78
2022-10-04T05:54:35.978Z,100816.91
2022-10-04T05:55:46.031Z,100820.19
2022-10-04T05:56:59.227Z,100825.75
2022-10-04T05:58:34.469Z,100825.16
2022-10-04T05:59:40.259Z,100826.13
2022-10-04T06:01:03.013Z,100825.41
2022-10-04T06:02:32.475Z,100815.66
2022-10-04T06:03:44.432Z,100834.63
2022-10-04T06:04:52.546Z,100826.41
2022-10-04T06:06:06.241Z,100827.31
2022-10-04T06:07:25.784Z,100830.47
2022-10-04T06:09:02.653Z,100818.13
2022-10-04T06:10:26.245Z,100826.22
2022-10-04T06:11:50.140Z,100819.81
2022-10-04T06:13:02.106Z,100822.31
2022-10-04T06:14:23.367Z,100815.66
2022-10-04T06:15:44.529Z,100820.22
2022-10-04T06:16:59.526Z,100821.47
2022-10-04T06:18:04.696Z,100819.56
2022-10-04T06:19:18.967Z,100825.28
2022-10-04T06:20:29.287Z,100825.78
2022-10-04T06:21:35.729Z,100826.84
2022-10-04T06:22:47.393Z,100833.63
2022-10-04T06:23:59.528Z,100829.50
2022-10-04T06:25:26.649Z,100834.66
2022-10-04T06:26:44.478Z,100829.91
2022-10-04T06:27:55.770Z,100826.53
2022-10-04T06:29:02.432Z,100824.44
2022-10-04T06:30:13.234Z,100831.84
2022-10-04T06:31:15.592Z,100835.31
2022-10-04T06:32:26.906Z,100836.66
2022-10-04T06:34:07.409Z,100835.50
2022-10-04T06:35:24.603Z,100830.94
2022-10-04T06:36:30.004Z,100834.66
2022-10-04T06:37:32.318Z,100836.78
2022-10-04T06:38:56.247Z,100837.59
2022-10-04T06:40:06.532Z,100841.06
2022-10-04T06:42:09.433Z,100846.63
2022-10-04T06:43:30.259Z,100845.84
2022-10-04T06:44:54.818Z,100837.28
2022-10-04T06:46:13.120Z,100848.09
2022-10-04T06:47:27.332Z,100851.75
2022-10-04T06:48:55.497Z,100853.19
2022-10-04T06:50:22.529Z,100844.16
2022-10-04T06:51:51.569Z,100853.41
2022-10-04T06:52:56.703Z,100860.69
2022-10-04T06:54:33.771Z,100855.94
2022-10-04T06:56:13.230Z,100867.34
2022-10-04T06:58:20.630Z,100848.81
2022-10-04T06:59:36.496Z,100847.50
2022-10-04T07:00:52.981Z,100849.91
2022-10-04T07:02:13.852Z,100859.00
2022-10-04T07:03:39.561Z,100854.78
2022-10-04T07:05:14.517Z,100857.56
2022-10-04T07:06:24.722Z,100855.97
2022-10-04T07:07:36.100Z,100861.56
2022-10-04T07:09:08.292Z,100874.75
2022-10-04T07:10:35.689Z,100864.25
2022-10-04T07:11:49.695Z,100866.63
2022-10-04T07:13:17.401Z,100874.06
2022-10-04T07:14:32.846Z,100873.84
2022-10-04T07:16:03.400Z,100874.91
2022-10-04T07:17:37.969Z,100873.97
2022-10-04T07:19:01.783Z,100880.16
2022-10-04T07:20:06.824Z,100874.38
2022-10-04T07:21:20.636Z,100870.38
2022-10-04T07:22:37.560Z,100880.13
2022-10-04T07:23:50.821Z,100886.78
2022-10-04T07:25:28.282Z,100892.72
2022-10-04T07:26:50.403Z,100887.13
2022-10-04T07:28:27.636Z,100893.44
2022-10-04T07:29:41.764Z,100892.22
2022-10-04T07:31:01.495Z,100895.34
2022-10-04T07:32:09.752Z,100901.63
2022-10-04T07:33:19.067Z,100902.81
2022-10-04T07:34:27.355Z,100898.78
2022-10-04T07:35:39.973Z,100895.97
2022-10-04T07:36:49.391Z,100896.03
2022-10-04T07:38:17.611Z,100897.09
2022-10-04T07:39:39.116Z,100899.28
2022-10-04T07:41:05.130Z,100898.16
2022-10-04T07:42:28.584Z,100907.91
2022-10-04T07:43:35.061Z,100901.19
2022-10-04T07:44:40.698Z,100900.41
2022-10-04T07:45:43.752Z,100903.09
2022-10-04T07:46:56.641Z,100915.72
2022-10-04T07:48:11.011Z,100912.34
2022-10-04T07:49:21.977Z,100907.38
2022-10-04T07:50:34.666Z,100917.16
2022-10-04T07:51:52.083Z,100909.53
2022-10-04T07:53:04.875Z,100910.31
2022-10-04T07:54:24.746Z,100910.25
2022-10-04T07:55:33.407Z,100912.63
2022-10-04T07:56:51.841Z,100899.63
2022-10-04T07:58:24.737Z,100912.84
2022-10-04T07:59:56.382Z,100909.88
2022-10-04T08:01:12.194Z,100905.66
2022-10-04T08:02:31.193Z,100911.41
2022-10-04T08:04:19.101Z,100915.59
2022-10-04T08:05:28.710Z,100907.72
2022-10-04T08:06:58.649Z,100911.81
2022-10-04T08:08:32.068Z,100915.81
2022-10-04T08:09:42.161Z,100919.63
2022-10-04T08:10:47.808Z,100914.84
2022-10-04T08:11:53.181Z,100928.69
2022-10-04T08:13:06.114Z,100925.59
2022-10-04T08:14:28.712Z,100923.41
2022-10-04T08:15:40.440Z,100927.75
2022-10-04T08:17:15.188Z,100923.16
2022-10-04T08:18:42.624Z,100926.09
2022-10-04T08:20:22.643Z,100932.78
2022-10-04T08:21:58.472Z,100926.72
2022-10-04T08:23:19.816Z,100941.25
2022-10-04T08:24:30.342Z,100940.22
2022-10-04T08:26:10.613Z,100940.13
2022-10-04T08:27:41.898Z,100941.38
2022-10-04T08:29:08.026Z,100944.84
2022-10-04T08:30:17.516Z,100940.53
2022-10-04T08:31:54.541Z,100937.50
2022-10-04T08:33:06.558Z,100938.50
2022-10-04T08:34:22.087Z,100943.94
2022-10-04T08:35:40.542Z,100944.75
2022-10-04T08:36:51.564Z,100943.78
2022-10-04T08:38:35.397Z,100947.91
2022-10-04T08:39:54.795Z,100947.13
2022-10-04T08:41:17.280Z,100952.47
2022-10-04T08:42:50.839Z,100954.78
2022-10-04T08:44:03.585Z,100950.41
2022-10-04T08:45:24.686Z,100948.13
2022-10-04T08:46:53.512Z,100942.09
2022-10-04T08:48:22.874Z,100949.38
2022-10-04T08:49:38.087Z,100949.44
2022-10-04T08:51:02.544Z,100947.84
2022-10-04T08:52:17.359Z,100954.72
2022-10-04T08:53:38.231Z,100955.16
2022-10-04T08:55:01.054Z,100960.69
2022-10-04T08:56:24.255Z,100957.09
2022-10-04T08:57:50.500Z,100949.22
2022-10-04T08:59:32.769Z,100960.91
2022-10-04T09:00:55.561Z,100960.50
2022-10-04T09:02:13.868Z,100952.81
2022-10-04T09:03:34.987Z,100962.03
2022-10-04T09:05:01.731Z,100964.00
2022-10-04T09:06:21.701Z,100960.75
2022-10-04T09:07:45.499Z,100964.94
2022-10-04T09:09:18.658Z,100962.84
2022-10-04T09:10:56.386Z,100959.41
2022-10-04T09:12:30.045Z,100968.59
2022-10-04T09:14:12.912Z,100969.78
2022-10-04T09:15:20.965Z,100970.41
2022-10-04T09:16:52.765Z,100964.88
2022-10-04T09:17:55.852Z,100971.91
2022-10-04T09:19:19.466Z,100967.94
2022-10-04T09:20:39.904Z,100970.44
2022-10-04T09:22:15.336Z,100970.63
2022-10-04T09:23:25.535Z,100977.72
2022-10-04T09:24:46.672Z,100976.25
2022-10-04T09:26:26.479Z,100973.56
2022-10-04T09:27:55.091Z,100967.06
2022-10-04T09:29:16.468Z,100980.75
2022-10-04T09:30:22.653Z,100972.25
2022-10-04T09:31:34.206Z,100976.63
2022-10-04T09:32:59.819Z,100963.97
2022-10-04T09:34:11.345Z,100975.00
2022-10-04T09:35:24.487Z,100970.41
2022-10-04T09:36:40.892Z,100975.44
2022-10-04T09:38:19.585Z,100965.47
2022-10-04T09:39:37.508Z,100981.66
2022-10-04T09:41:15.005Z,100982.03
2022-10-04T09:42:49.434Z,100981.84
2022-10-04T09:44:13.271Z,100982.97
2022-10-04T09:45:49.596Z,100985.91
2022-10-04T09:47:22.329Z,100973.28
2022-10-04T09:49:05.106Z,100975.81
2022-10-04T09:50:21.457Z,100977.66
2022-10-04T09:51:50.695Z,100972.44
2022-10-04T09:53:46.769Z,100982.47
2022-10-04T09:55:27.494Z,100985.47
2022-10-04T09:57:04.222Z,100983.16
2022-10-04T09:58:38.185Z,100981.75
2022-10-04T10:00:13.546Z,100977.97
2022-10-04T10:01:56.212Z,100981.28
2022-10-04T10:06:56.425Z,100970.13
2022-10-04T10:08:46.213Z,100983.78
2022-10-04T10:10:29.659Z,100983.34
2022-10-04T10:12:23.717Z,100978.72
2022-10-04T10:13:49.543Z,100993.41
2022-10-04T10:15:14.007Z,100989.25
2022-10-04T10:16:22.105Z,100990.00
2022-10-04T10:17:36.741Z,100990.41
2022-10-04T10:19:16.245Z,100985.91
2022-10-04T10:20:45.707Z,100985.69
2022-10-04T10:22:00.145Z,100987.38
2022-10-04T10:23:30.606Z,100998.22
2022-10-04T10:24:45.424Z,100988.47
2022-10-04T10:26:13.264Z,100988.38
2022-10-04T10:27:33.780Z,100979.72
2022-10-04T10:29:03.156Z,100990.03
2022-10-04T10:30:31.805Z,100995.84
2022-10-04T10:32:02.021Z,100987.22
2022-10-04T10:33:33.867Z,100976.75
2022-10-04T10:34:50.033Z,100986.31
2022-10-04T10:35:58.537Z,100987.94
2022-10-04T10:37:26.696Z,100981.94
2022-10-04T10:38:49.874Z,100992.69
2022-10-04T10:40:19.405Z,100993.84
2022-10-04T10:41:34.319Z,100983.88
2022-10-04T10:43:05.509Z,100989.59
2022-10-04T10:44:34.929Z,100993.59
2022-10-04T10:46:11.300Z,100997.56
2022-10-04T10:47:32.682Z,101003.34
2022-10-04T10:49:22.412Z,101006.94
2022-10-04T10:50:59.032Z,101015.94
2022-10-04T10:52:51.964Z,101011.56
2022-10-04T10:54:34.295Z,101015.00
2022-10-04T10:56:08.756Z,101018.56
2022-10-04T10:57:46.641Z,101008.41
2022-10-04T10:59:17.249Z,101013.63
2022-10-04T11:00:24.477Z,101014.25
2022-10-04T11:02:05.918Z,101015.91
2022-10-04T11:03:14.641Z,101016.63
2022-10-04T11:04:18.185Z,101019.66
2022-10-04T11:05:45.489Z,101015.00
2022-10-04T11:07:16.671Z,101021.81
2022-10-04T11:08:45.019Z,101028.84
2022-10-04T11:10:23.225Z,101020.78
2022-10-04T11:12:16.908Z,101014.78
2022-10-04T11:13:26.120Z,101025.25
2022-10-04T11:14:47.106Z,101029.81
2022-10-04T11:16:19.912Z,101021.34
2022-10-04T11:17:36.012Z,101027.59
2022-10-04T11:19:03.414Z,101031.44
2022-10-04T11:20:45.605Z,101033.22
2022-10-04T11:22:07.719Z,101030.38
2022-10-04T11:23:19.284Z,101030.81
2022-10-04T11:24:52.969Z,101028.59
2022-10-04T11:26:43.310Z,101028.88
2022-10-04T11:28:09.988Z,101025.53
2022-10-04T11:29:25.757Z,101026.13
2022-10-04T11:31:02.374Z,101027.03
2022-10-04T11:32:41.764Z,101013.69
2022-10-04T11:34:23.240Z,101018.00
2022-10-04T11:36:25.573Z,101021.94
2022-10-04T11:38:08.949Z,101020.81
2022-10-04T11:39:53.276Z,101021.91
2022-10-04T11:41:23.899Z,101008.09
2022-10-04T11:43:04.129Z,101014.88
2022-10-04T11:44:34.215Z,101017.56
2022-10-04T11:46:10.932Z,101019.88
2022-10-04T11:47:33.799Z,101014.03
2022-10-04T11:48:43.413Z,101011.94
2022-10-04T11:50:11.815Z,101017.50
2022-10-04T11:51:51.538Z,101018.91
2022-10-04T11:53:28.798Z,101018.94
2022-10-04T11:55:20.550Z,101021.75
2022-10-04T11:57:04.402Z,101027.81
2022-10-04T11:58:30.787Z,101020.03
2022-10-04T12:00:22.695Z,101014.22
2022-10-04T12:02:07.507Z,101016.31
2022-10-04T12:03:35.178Z,101018.19
2022-10-04T12:04:56.713Z,101024.34
2022-10-04T12:06:19.367Z,101021.47
2022-10-04T12:07:57.901Z,101022.72
2022-10-04T12:09:45.329Z,101015.66
2022-10-04T12:11:12.289Z,101025.72
2022-10-04T12:12:47.464Z,101026.09
2022-10-04T12:14:24.474Z,101026.13
2022-10-04T12:15:40.522Z,101031.09
2022-10-04T12:17:38.189Z,101027.13
2022-10-04T12:19:03.945Z,101018.41
2022-10-04T12:20:45.329Z,101031.00
2022-10-04T12:21:50.660Z,101021.28
2022-10-04T12:23:37.802Z,101022.06
2022-10-04T12:24:59.690Z,101032.06
2022-10-04T12:26:24.271Z,101026.09
2022-10-04T12:27:52.744Z,101028.72
2022-10-04T12:29:19.748Z,101033.13
2022-10-04T12:30:51.054Z,101024.97
2022-10-04T12:32:02.422Z,101033.53
2022-10-04T12:33:16.050Z,101029.34
2022-10-04T12:35:09.178Z,101031.63
2022-10-04T12:36:40.977Z,101038.53
2022-10-04T12:38:14.601Z,101036.81
2022-10-04T12:39:55.351Z,101037.09
2022-10-04T12:41:06.637Z,101035.75
2022-10-04T12:42:29.209Z,101027.22
2022-10-04T12:43:46.292Z,101030.59
2022-10-04T12:45:27.060Z,101035.69
2022-10-04T12:47:06.725Z,101040.44
2022-10-04T12:48:36.117Z,101035.91
2022-10-04T12:50:15.475Z,101036.94
2022-10-04T12:51:57.877Z,101033.91
2022-10-04T12:53:19.803Z,101035.81
2022-10-04T12:54:49.766Z,101030.25
2022-10-04T12:56:07.015Z,101045.81
2022-10-04T12:57:31.050Z,101049.47
2022-10-04T12:59:17.340Z,101044.75
2022-10-04T13:00:38.730Z,101036.91
2022-10-04T13:02:24.411Z,101042.66
2022-10-04T13:03:33.909Z,101048.97
2022-10-04T13:04:55.424Z,101039.81
2022-10-04T13:06:14.783Z,101040.88
2022-10-04T13:07:37.743Z,101055.03
2022-10-04T13:09:39.701Z,101050.88
2022-10-04T13:11:05.709Z,101060.84
2022-10-04T13:12:34.585Z,101047.03
2022-10-04T13:14:15.061Z,101056.00
2022-10-04T13:17:58.543Z,101053.28
2022-10-04T13:19:54.823Z,101049.50
2022-10-04T13:21:03.151Z,101057.72
2022-10-04T13:22:56.344Z,101045.91
2022-10-04T13:24:13.896Z,101049.03
2022-10-04T13:26:04.819Z,101048.88
2022-10-04T13:27:23.374Z,101046.56
2022-10-04T13:28:41.893Z,101056.44
2022-10-04T13:30:07.287Z,101050.41
2022-10-04T13:31:33.057Z,101048.78
2022-10-04T13:32:45.608Z,101053.50
2022-10-04T13:34:41.722Z,101046.63
2022-10-04T13:37:19.541Z,101050.34
2022-10-04T13:38:18.213Z,101057.59
2022-10-04T13:39:39.151Z,101053.22
2022-10-04T13:41:11.678Z,101054.50
2022-10-04T13:42:50.822Z,101055.38
2022-10-04T13:44:01.798Z,101058.19
2022-10-04T13:46:02.158Z,101065.41
2022-10-04T13:47:48.505Z,101066.78
2022-10-04T13:49:01.683Z,101062.97
2022-10-04T13:50:44.111Z,101063.59
2022-10-04T13:52:10.217Z,101063.34
2022-10-04T13:53:54.063Z,101063.34
2022-10-04T13:55:28.520Z,101059.53
2022-10-04T13:57:05.661Z,101066.50
2022-10-04T13:58:50.290Z,101064.47
2022-10-04T14:00:02.860Z,101061.91
2022-10-04T14:01:39.883Z,101061.63
2022-10-04T14:03:21.568Z,101060.94
2022-10-04T14:04:45.482Z,101072.84
2022-10-04T14:06:31.378Z,101077.47
2022-10-04T14:08:06.151Z,101071.00
2022-10-04T14:09:42.259Z,101077.13
2022-10-04T14:11:09.879Z,101070.81
2022-10-04T14:12:58.446Z,101074.22
2022-10-04T14:14:13.777Z,101077.34
2022-10-04T14:15:51.333Z,101084.28
2022-10-04T14:17:04.807Z,101089.66
2022-10-04T14:18:46.322Z,101093.84
2022-10-04T14:20:31.591Z,101091.19
2022-10-04T14:22:06.999Z,101091.50
2022-10-04T14:23:23.806Z,101097.31
2022-10-04T14:25:10.935Z,101101.50
2022-10-04T14:26:48.072Z,101104.91
2022-10-04T14:28:10.918Z,101099.94
2022-10-04T14:30:15.363Z,101101.84
2022-10-04T14:31:48.548Z,101094.22
2022-10-04T14:33:27.302Z,101108.69
2022-10-04T14:36:46.788Z,101107.22
2022-10-04T14:38:05.836Z,101097.31
2022-10-04T14:39:30.066Z,101109.53
2022-10-04T14:40:59.061Z,101105.59
2022-10-04T14:42:14.484Z,101113.28
2022-10-04T14:43:53.761Z,101111.72
2022-10-04T14:45:14.853Z,101112.56
2022-10-04T14:46:35.305Z,101108.78
2022-10-04T14:48:15.069Z,101118.31
2022-10-04T14:50:07.865Z,101112.53
2022-10-04T14:51:34.948Z,101114.59
2022-10-04T14:53:35.899Z,101112.06
2022-10-04T14:55:10.561Z,101121.59
2022-10-04T14:56:53.595Z,101119.00
2022-10-04T14:58:43.798Z,101124.78
2022-10-04T15:00:18.627Z,101135.50
2022-10-04T15:03:34.744Z,101129.44
2022-10-04T15:05:08.888Z,101129.44
2022-10-04T15:06:34.333Z,101132.47
2022-10-04T15:07:50.165Z,101143.25
2022-10-04T15:09:11.983Z,101144.41
2022-10-04T15:10:21.240Z,101152.97
2022-10-04T15:12:07.955Z,101149.75
2022-10-04T15:13:34.612Z,101161.22
2022-10-04T15:14:46.667Z,101160.25
2022-10-04T15:16:10.069Z,101159.31